Rome, NY (13441)

8:53 AM EDT on April 21, 2015 (GMT -0400)
Riverside | | Change Station
CLOSE
Current Station
Personal Weather Station
Location: Rome, NY
Elevation: 459 ft
Nearby Weather Stations

Elev 459 ft 43.21 °N, 75.44 °W | Updated 41 seconds ago

Light Rain
Light Rain
48.7 °F
Feels Like 49 °F
N
2.0
Wind Variable Wind from SSW
Gusts 2.5 mph

Today
High -- | Low -- °F
--% Chance of Precip.
Yesterday
High -- | Low -- °F
Precip. -- in
6:10 AM 7:51 PM
Waxing Crescent, 10% visible
Pressure 29.63 in
Visibility 10.0 miles
Clouds Few 3600 ft
Scattered Clouds 4500 ft
Overcast 6000 ft
Windchill 49 °F
Dew Point 48 °F
Humidity 95%
Rainfall 0.50 in
Snow Depth Not available.
UV 1.0 out of 12
Pollen 6.30 out of 12
Air Quality Not available.
Flu Activity Widespread
METAR KRME 211153Z 17003KT 10SM -RA FEW036 SCT045 OVC060 08/07 A2963 RMK AO2 SLP032 P0004 60023 70063 T00830067 10100 20083 51012

More Conditions Fewer Conditions

Pressure 29.63 in
Visibility 10.0 miles
Clouds Few 3600 ft
Scattered Clouds 4500 ft
Overcast 6000 ft
Windchill 49 °F
Dew Point 48 °F
Humidity 95%
Rainfall 0.50 in
Snow Depth Not available.
UV 1.0 out of 12
Pollen 6.30 out of 12
Air Quality Not available.
Flu Activity Widespread
METAR KRME 211153Z 17003KT 10SM -RA FEW036 SCT045 OVC060 08/07 A2963 RMK AO2 SLP032 P0004 60023 70063 T00830067 10100 20083 51012

More Conditions Fewer Conditions

10-Day Weather Forecast

Almanac

Astronomy

Apr. 21, 2015 Rise Set
Actual Time
Civil Twilight
Nautical Twilight
Astronomical Twilight
Moon
Length of Visible Light
Length of Day
Tomorrow will be .
, % of the Moon is Illuminated

Today's Extremes

State Highs State Lows

Community

WunderPhotos

Upload Photos

1,815,361 photos uploaded!

WunderBlogs® & News

Nearby

Air Quality

  Air Quality AQ Index Pollutant
Not available.

Snow Depth

Station Depth Elevation

Earthquake Activity

City Distance Mag. Time & Date
Minimum magnitude displayed is 2.5.

Coastal Water Temperatures

Place Temperature

Stations

Nearby Weather Stations

Station Location Temp. Windchill Dew Point Humidity Wind Precip. Elev Updated Type